createdAt,value
2024-01-20T00:01:20.307Z,97159.00
2024-01-20T00:04:22.281Z,97156.44
2024-01-20T00:07:24.271Z,97154.75
2024-01-20T00:10:25.991Z,97152.22
2024-01-20T00:13:27.669Z,97143.69
2024-01-20T00:16:29.397Z,97142.88
2024-01-20T00:19:31.283Z,97139.47
2024-01-20T00:22:33.248Z,97135.19
2024-01-20T00:25:35.250Z,97144.59
2024-01-20T00:28:37.335Z,97133.56
2024-01-20T00:31:39.307Z,97145.50
2024-01-20T00:34:51.571Z,97143.81
2024-01-20T00:38:02.136Z,97150.66
2024-01-20T00:41:04.056Z,97147.25
2024-01-20T00:44:06.055Z,97143.00
2024-01-20T00:47:08.093Z,97143.00
2024-01-20T00:50:10.270Z,97147.25
2024-01-20T00:53:11.989Z,97147.25
2024-01-20T00:56:13.771Z,97160.91
2024-01-20T00:59:15.573Z,97153.22
2024-01-20T01:02:19.867Z,97153.22
2024-01-20T01:05:21.773Z,97151.53
2024-01-20T01:08:23.442Z,97139.59
2024-01-20T01:11:25.193Z,97151.53
2024-01-20T01:14:26.943Z,97146.44
2024-01-20T01:17:28.826Z,97142.16
2024-01-20T01:20:30.558Z,97135.34
2024-01-20T01:23:32.527Z,97152.41
2024-01-20T01:26:34.382Z,97154.09
2024-01-20T01:29:36.312Z,97148.16
2024-01-20T01:32:38.457Z,97162.63
2024-01-20T01:35:40.202Z,97163.47
2024-01-20T01:38:41.868Z,97168.59
2024-01-20T01:41:45.167Z,97168.59
2024-01-20T01:44:46.870Z,97176.25
2024-01-20T01:47:49.412Z,97172.84
2024-01-20T01:50:54.733Z,97180.53
2024-01-20T01:53:58.867Z,97178.81
2024-01-20T01:57:01.561Z,97182.22
2024-01-20T02:00:05.487Z,97189.91
2024-01-20T02:03:09.294Z,97206.09
2024-01-20T02:06:11.273Z,97209.50
2024-01-20T02:09:14.330Z,97211.19
2024-01-20T02:12:16.613Z,97200.97
2024-01-20T02:15:19.082Z,97185.63
2024-01-20T02:18:23.927Z,97181.38
2024-01-20T02:21:25.809Z,97180.53
2024-01-20T02:24:27.622Z,97179.69
2024-01-20T02:27:29.434Z,97172.00
2024-01-20T02:30:31.280Z,97163.47
2024-01-20T02:33:33.140Z,97156.66
2024-01-20T02:36:34.949Z,97160.06
2024-01-20T02:39:36.669Z,97158.34
2024-01-20T02:42:38.433Z,97183.06
2024-01-20T02:45:40.150Z,97200.97
2024-01-20T02:48:42.293Z,97189.88
2024-01-20T02:51:44.015Z,97182.22
2024-01-20T02:54:45.720Z,97191.59
2024-01-20T02:57:47.503Z,97188.19
2024-01-20T03:00:49.211Z,97194.19
2024-01-20T03:03:50.956Z,97189.03
2024-01-20T03:06:52.675Z,97193.28
2024-01-20T03:09:54.441Z,97196.72
2024-01-20T03:12:56.999Z,97182.22
2024-01-20T03:15:58.804Z,97194.97
2024-01-20T03:19:00.643Z,97201.78
2024-01-20T03:22:02.443Z,97203.47
2024-01-20T03:25:04.309Z,97218.81
2024-01-20T03:28:06.171Z,97218.81
2024-01-20T03:31:07.890Z,97214.56
2024-01-20T03:34:10.538Z,97218.84
2024-01-20T03:37:12.352Z,97208.59
2024-01-20T03:40:14.228Z,97228.13
2024-01-20T03:43:15.909Z,97224.72
2024-01-20T03:46:19.476Z,97240.91
2024-01-20T03:49:21.525Z,97239.16
2024-01-20T03:52:23.389Z,97240.84
2024-01-20T03:55:25.077Z,97241.66
2024-01-20T03:58:26.857Z,97235.66
2024-01-20T04:01:28.615Z,97222.03
2024-01-20T04:04:30.393Z,97236.50
2024-01-20T04:07:32.169Z,97225.41
2024-01-20T04:10:33.901Z,97242.47
2024-01-20T04:13:35.618Z,97236.53
2024-01-20T04:16:37.767Z,97240.78
2024-01-20T04:19:39.684Z,97244.25
2024-01-20T04:22:41.420Z,97241.72
2024-01-20T04:25:43.198Z,97248.53
2024-01-20T04:28:45.411Z,97260.47
2024-01-20T04:31:47.187Z,97252.78
2024-01-20T04:34:48.935Z,97257.91
2024-01-20T04:37:50.642Z,97257.00
2024-01-20T04:40:52.456Z,97274.06
2024-01-20T04:43:54.128Z,97273.22
2024-01-20T04:46:55.817Z,97274.88
2024-01-20T04:49:57.532Z,97273.97
2024-01-20T04:52:59.238Z,97279.88
2024-01-20T04:56:04.661Z,97286.69
2024-01-20T04:59:06.328Z,97298.63
2024-01-20T05:02:08.070Z,97290.94
2024-01-20T05:05:10.130Z,97288.34
2024-01-20T05:08:11.863Z,97294.31
2024-01-20T05:11:13.720Z,97292.63
2024-01-20T05:14:15.513Z,97290.06
2024-01-20T05:17:17.213Z,97287.47
2024-01-20T05:20:18.979Z,97308.78
2024-01-20T05:23:20.724Z,97312.97
2024-01-20T05:26:22.538Z,97311.22
2024-01-20T05:29:24.522Z,97323.13
2024-01-20T05:32:26.676Z,97321.41
2024-01-20T05:35:28.409Z,97317.16
2024-01-20T05:38:30.093Z,97321.34
2024-01-20T05:41:31.836Z,97318.75
2024-01-20T05:44:33.619Z,97327.25
2024-01-20T05:47:35.417Z,97323.81
2024-01-20T05:50:37.176Z,97321.25
2024-01-20T05:53:38.988Z,97312.72
2024-01-20T05:56:40.653Z,97334.06
2024-01-20T05:59:42.354Z,97329.00
2024-01-20T06:02:44.178Z,97328.16
2024-01-20T06:05:45.881Z,97348.53
2024-01-20T06:08:47.586Z,97340.84
2024-01-20T06:11:49.923Z,97339.88
2024-01-20T06:14:51.627Z,97347.59
2024-01-20T06:17:53.417Z,97339.13
2024-01-20T06:20:55.536Z,97353.66
2024-01-20T06:23:57.323Z,97345.16
2024-01-20T06:26:59.064Z,97341.78
2024-01-20T06:30:01.093Z,97359.59
2024-01-20T06:33:04.012Z,97357.06
2024-01-20T06:36:06.309Z,97357.97
2024-01-20T06:39:08.194Z,97352.84
2024-01-20T06:42:11.599Z,97364.81
2024-01-20T06:45:13.408Z,97365.66
2024-01-20T06:48:15.301Z,97362.25
2024-01-20T06:51:17.343Z,97368.97
2024-01-20T06:54:19.237Z,97372.31
2024-01-20T06:57:21.003Z,97372.31
2024-01-20T07:00:22.867Z,97373.13
2024-01-20T07:03:24.740Z,97375.66
2024-01-20T07:06:26.569Z,97364.47
2024-01-20T07:09:28.426Z,97371.22
2024-01-20T07:12:31.020Z,97367.72
2024-01-20T07:15:33.018Z,97376.19
2024-01-20T07:18:34.756Z,97377.88
2024-01-20T07:21:36.544Z,97393.19
2024-01-20T07:24:38.522Z,97397.63
2024-01-20T07:27:40.278Z,97407.91
2024-01-20T07:30:42.039Z,97408.69
2024-01-20T07:33:43.885Z,97402.69
2024-01-20T07:36:46.103Z,97419.06
2024-01-20T07:39:48.216Z,97424.38
2024-01-20T07:42:50.045Z,97421.25
2024-01-20T07:45:55.225Z,97418.88
2024-01-20T07:48:57.056Z,97428.22
2024-01-20T07:51:58.962Z,97429.97
2024-01-20T07:55:00.771Z,97430.81
2024-01-20T07:58:02.577Z,97433.47
2024-01-20T08:01:04.557Z,97442.78
2024-01-20T08:04:06.851Z,97443.75
2024-01-20T08:07:10.107Z,97446.47
2024-01-20T08:10:12.276Z,97436.28
2024-01-20T08:13:13.999Z,97447.44
2024-01-20T08:16:15.713Z,97459.38
2024-01-20T08:19:17.532Z,97449.13
2024-01-20T08:22:20.911Z,97446.59
2024-01-20T08:25:23.047Z,97450.88
2024-01-20T08:28:25.007Z,97455.16
2024-01-20T08:31:26.778Z,97452.53
2024-01-20T08:34:28.535Z,97461.94
2024-01-20T08:37:30.333Z,97461.94
2024-01-20T08:40:32.012Z,97473.88
2024-01-20T08:43:33.714Z,97465.34
2024-01-20T08:46:36.453Z,97477.31
2024-01-20T08:49:38.247Z,97480.72
2024-01-20T08:52:40.873Z,97473.91
2024-01-20T08:55:42.720Z,97472.22
2024-01-20T08:58:44.387Z,97492.72
2024-01-20T09:01:46.396Z,97475.66
2024-01-20T09:04:48.086Z,97490.16
2024-01-20T09:07:49.767Z,97490.19
2024-01-20T09:10:52.249Z,97494.47
2024-01-20T09:13:54.033Z,97487.63
2024-01-20T09:16:55.738Z,97500.41
2024-01-20T09:19:57.603Z,97494.44
2024-01-20T09:22:59.410Z,97507.22
2024-01-20T09:26:01.100Z,97510.50
2024-01-20T09:29:02.848Z,97508.66
2024-01-20T09:32:05.013Z,97506.88
2024-01-20T09:35:07.911Z,97504.25
2024-01-20T09:38:09.957Z,97498.91
2024-01-20T09:41:12.638Z,97503.06
2024-01-20T09:44:16.447Z,97502.22
2024-01-20T09:47:20.754Z,97500.47
2024-01-20T09:50:22.577Z,97495.31
2024-01-20T09:53:25.468Z,97499.47
2024-01-20T09:56:30.447Z,97501.94
2024-01-20T09:59:33.347Z,97501.59
2024-01-20T10:02:36.640Z,97487.78
2024-01-20T10:05:39.125Z,97499.63
2024-01-20T10:08:40.955Z,97494.50
2024-01-20T10:11:42.609Z,97503.91
2024-01-20T10:14:44.425Z,97498.97
2024-01-20T10:17:46.473Z,97495.56
2024-01-20T10:20:49.126Z,97496.44
2024-01-20T10:23:51.049Z,97502.00
2024-01-20T10:26:53.707Z,97492.31
2024-01-20T10:29:55.379Z,97487.78
2024-01-20T10:33:08.606Z,97482.53
2024-01-20T10:36:15.238Z,97494.28
2024-01-20T10:39:21.116Z,97494.78
2024-01-20T10:42:28.484Z,97488.59
2024-01-20T10:45:40.059Z,97486.78
2024-01-20T10:48:47.929Z,97473.63
2024-01-20T10:51:51.020Z,97473.22
2024-01-20T10:54:52.842Z,97479.97
2024-01-20T10:57:55.649Z,97480.78
2024-01-20T11:00:57.521Z,97469.31
2024-01-20T11:03:59.372Z,97483.53
2024-01-20T11:07:01.699Z,97483.31
2024-01-20T11:10:05.082Z,97483.03
2024-01-20T11:13:07.849Z,97477.75
2024-01-20T11:16:19.008Z,97472.16
2024-01-20T11:19:20.758Z,97472.94
2024-01-20T11:22:36.786Z,97455.53
2024-01-20T11:25:38.549Z,97477.47
2024-01-20T11:28:44.378Z,97472.66
2024-01-20T11:31:49.987Z,97470.97
2024-01-20T11:34:51.845Z,97468.03
2024-01-20T11:37:58.647Z,97465.75
2024-01-20T11:41:01.399Z,97479.81
2024-01-20T11:44:03.242Z,97483.47
2024-01-20T11:47:05.267Z,97482.88
2024-01-20T11:50:08.034Z,97476.09
2024-01-20T11:53:10.290Z,97482.53
2024-01-20T11:56:12.057Z,97486.19
2024-01-20T11:59:14.659Z,97487.34
2024-01-20T12:02:17.364Z,97480.06
2024-01-20T12:05:19.863Z,97479.69
2024-01-20T12:08:22.201Z,97473.13
2024-01-20T12:11:24.588Z,97463.84
2024-01-20T12:14:26.369Z,97456.25
2024-01-20T12:17:28.119Z,97449.34
2024-01-20T12:20:30.095Z,97453.97
2024-01-20T12:23:31.759Z,97445.06
2024-01-20T12:26:33.399Z,97433.50
2024-01-20T12:29:35.160Z,97429.13
2024-01-20T12:32:36.884Z,97431.22
2024-01-20T12:35:38.661Z,97423.72
2024-01-20T12:38:40.443Z,97425.84
2024-01-20T12:41:42.308Z,97426.63
2024-01-20T12:44:44.053Z,97428.94
2024-01-20T12:47:45.761Z,97428.16
2024-01-20T12:50:47.486Z,97419.41
2024-01-20T12:53:49.215Z,97421.13
2024-01-20T12:56:50.864Z,97412.28
2024-01-20T12:59:52.536Z,97416.53
2024-01-20T13:02:54.318Z,97411.13
2024-01-20T13:05:56.061Z,97416.53
2024-01-20T13:08:57.740Z,97418.59
2024-01-20T13:11:59.394Z,97414.50
2024-01-20T13:15:01.442Z,97403.31
2024-01-20T13:18:03.615Z,97404.47
2024-01-20T13:21:05.533Z,97402.38
2024-01-20T13:24:07.343Z,97391.88
2024-01-20T13:27:09.112Z,97389.59
2024-01-20T13:30:11.367Z,97387.78
2024-01-20T13:33:13.469Z,97381.41
2024-01-20T13:36:15.276Z,97376.94
2024-01-20T13:39:17.088Z,97377.38
2024-01-20T13:42:18.870Z,97369.50
2024-01-20T13:45:20.628Z,97357.66
2024-01-20T13:48:22.442Z,97356.00
2024-01-20T13:51:25.878Z,97368.00
2024-01-20T13:54:27.663Z,97352.56
2024-01-20T13:57:29.594Z,97366.00
2024-01-20T14:00:31.421Z,97352.06
2024-01-20T14:03:33.523Z,97358.84
2024-01-20T14:06:35.651Z,97366.22
2024-01-20T14:09:37.423Z,97360.28
2024-01-20T14:12:39.218Z,97349.06
2024-01-20T14:15:41.236Z,97355.47
2024-01-20T14:18:43.078Z,97352.91
2024-01-20T14:21:44.812Z,97364.19
2024-01-20T14:24:46.700Z,97361.00
2024-01-20T14:27:48.415Z,97366.44
2024-01-20T14:30:50.607Z,97363.19
2024-01-20T14:33:52.523Z,97369.22
2024-01-20T14:36:54.431Z,97381.41
2024-01-20T14:39:56.081Z,97383.19
2024-01-20T14:42:57.729Z,97382.50
2024-01-20T14:45:59.423Z,97381.59
2024-01-20T14:49:08.421Z,97383.50
2024-01-20T14:52:10.547Z,97370.91
2024-01-20T14:55:12.300Z,97378.63
2024-01-20T14:58:14.021Z,97385.50
2024-01-20T15:01:15.744Z,97387.13
2024-01-20T15:04:17.681Z,97388.09
2024-01-20T15:07:19.516Z,97392.41
2024-01-20T15:10:22.453Z,97402.84
2024-01-20T15:13:24.145Z,97402.97
2024-01-20T15:16:25.823Z,97401.31
2024-01-20T15:19:28.284Z,97402.31
2024-01-20T15:22:30.065Z,97397.38
2024-01-20T15:25:31.815Z,97413.78
2024-01-20T15:28:33.726Z,97412.22
2024-01-20T15:31:35.413Z,97412.41
2024-01-20T15:34:37.182Z,97413.50
2024-01-20T15:37:38.906Z,97417.97
2024-01-20T15:40:40.980Z,97420.72
2024-01-20T15:43:42.780Z,97423.38
2024-01-20T15:46:45.503Z,97412.97
2024-01-20T15:49:48.501Z,97414.13
2024-01-20T15:52:50.617Z,97418.69
2024-01-20T15:55:52.368Z,97413.53
2024-01-20T15:58:54.001Z,97416.25
2024-01-20T16:01:55.718Z,97417.19
2024-01-20T16:04:57.421Z,97410.47
2024-01-20T16:07:59.145Z,97415.78
2024-01-20T16:11:00.933Z,97415.28
2024-01-20T16:14:04.246Z,97412.84
2024-01-20T16:17:05.940Z,97413.88
2024-01-20T16:20:11.334Z,97428.69
2024-01-20T16:23:17.777Z,97429.72
2024-01-20T16:26:21.953Z,97425.66
2024-01-20T16:29:23.733Z,97418.97
2024-01-20T16:32:25.603Z,97433.63
2024-01-20T16:35:27.338Z,97420.81
2024-01-20T16:38:29.041Z,97429.47
2024-01-20T16:41:30.752Z,97425.38
2024-01-20T16:44:32.462Z,97426.47
2024-01-20T16:47:34.274Z,97431.66
2024-01-20T16:50:37.005Z,97422.34
2024-01-20T16:53:41.633Z,97430.91
2024-01-20T16:56:43.684Z,97440.38
2024-01-20T16:59:45.479Z,97438.94
2024-01-20T17:02:47.179Z,97441.56
2024-01-20T17:05:51.474Z,97451.97
2024-01-20T17:08:53.128Z,97433.41
2024-01-20T17:11:54.887Z,97447.97
2024-01-20T17:14:56.622Z,97445.44
2024-01-20T17:17:58.331Z,97459.16
2024-01-20T17:21:02.377Z,97471.13
2024-01-20T17:24:04.306Z,97472.78
2024-01-20T17:27:06.178Z,97458.44
2024-01-20T17:30:09.271Z,97459.44
2024-01-20T17:33:11.613Z,97455.97
2024-01-20T17:36:13.530Z,97457.72
2024-01-20T17:39:15.355Z,97459.56
2024-01-20T17:42:17.239Z,97450.97
2024-01-20T17:45:19.015Z,97457.16
2024-01-20T17:48:21.153Z,97461.50
2024-01-20T17:51:22.968Z,97447.16
2024-01-20T17:54:28.432Z,97457.28
2024-01-20T17:57:30.851Z,97470.25
2024-01-20T18:00:32.752Z,97469.38
2024-01-20T18:03:35.284Z,97466.84
2024-01-20T18:06:37.749Z,97476.25
2024-01-20T18:09:39.608Z,97482.41
2024-01-20T18:12:42.698Z,97479.09
2024-01-20T18:15:46.182Z,97473.00
2024-01-20T18:18:48.180Z,97472.19
2024-01-20T18:21:49.993Z,97464.47
2024-01-20T18:24:51.840Z,97477.38
2024-01-20T18:27:53.578Z,97469.78
2024-01-20T18:30:55.367Z,97477.66
2024-01-20T18:33:58.836Z,97455.53
2024-01-20T18:37:01.297Z,97456.31
2024-01-20T18:40:03.336Z,97474.22
2024-01-20T18:43:05.176Z,97464.97
2024-01-20T18:46:07.690Z,97469.16
2024-01-20T18:49:09.443Z,97475.97
2024-01-20T18:52:11.280Z,97482.78
2024-01-20T18:55:12.989Z,97474.44
2024-01-20T18:58:14.860Z,97483.16
2024-01-20T19:01:16.681Z,97483.94
2024-01-20T19:04:19.262Z,97479.69
2024-01-20T19:07:21.548Z,97468.56
2024-01-20T19:10:23.364Z,97478.75
2024-01-20T19:13:25.560Z,97478.75
2024-01-20T19:16:29.076Z,97471.97
2024-01-20T19:19:32.544Z,97472.84
2024-01-20T19:22:34.400Z,97466.09
2024-01-20T19:25:36.196Z,97465.31
2024-01-20T19:28:39.444Z,97460.22
2024-01-20T19:31:41.089Z,97458.47
2024-01-20T19:34:43.071Z,97449.91
2024-01-20T19:37:44.940Z,97448.16
2024-01-20T19:40:46.875Z,97438.84
2024-01-20T19:43:48.663Z,97449.81
2024-01-20T19:46:50.378Z,97442.09
2024-01-20T19:49:54.521Z,97439.50
2024-01-20T19:52:57.860Z,97416.41
2024-01-20T19:55:59.745Z,97435.97
2024-01-20T19:59:01.432Z,97433.44
2024-01-20T20:02:03.364Z,97435.19
2024-01-20T20:05:05.388Z,97431.69
2024-01-20T20:08:07.343Z,97438.59
2024-01-20T20:11:09.051Z,97424.88
2024-01-20T20:14:12.806Z,97424.09
2024-01-20T20:17:14.563Z,97416.38
2024-01-20T20:20:16.292Z,97411.25
2024-01-20T20:23:18.014Z,97421.44
2024-01-20T20:26:19.681Z,97412.88
2024-01-20T20:29:21.485Z,97421.41
2024-01-20T20:32:23.857Z,97422.34
2024-01-20T20:35:26.018Z,97422.34
2024-01-20T20:38:27.767Z,97418.03
2024-01-20T20:41:29.560Z,97416.31
2024-01-20T20:44:31.230Z,97422.31
2024-01-20T20:47:33.666Z,97430.84
2024-01-20T20:50:35.385Z,97424.72
2024-01-20T20:53:37.060Z,97425.56
2024-01-20T20:56:38.745Z,97428.91
2024-01-20T20:59:44.053Z,97432.28
2024-01-20T21:02:46.053Z,97433.97
2024-01-20T21:05:48.129Z,97427.06
2024-01-20T21:08:49.816Z,97428.75
2024-01-20T21:11:51.480Z,97426.16
2024-01-20T21:14:53.339Z,97429.59
2024-01-20T21:17:55.094Z,97421.00
2024-01-20T21:20:56.807Z,97421.00
2024-01-20T21:23:58.569Z,97421.91
2024-01-20T21:27:00.268Z,97427.88
2024-01-20T21:30:02.083Z,97419.38
2024-01-20T21:33:04.676Z,97421.97
2024-01-20T21:36:06.636Z,97414.28
2024-01-20T21:39:10.746Z,97410.06
2024-01-20T21:42:12.811Z,97399.91
2024-01-20T21:45:14.580Z,97398.25
2024-01-20T21:48:17.376Z,97400.78
2024-01-20T21:51:19.286Z,97402.50
2024-01-20T21:54:21.066Z,97399.09
2024-01-20T21:57:22.845Z,97397.44
2024-01-20T22:00:24.967Z,97396.59
2024-01-20T22:03:27.017Z,97382.03
2024-01-20T22:06:28.891Z,97387.19
2024-01-20T22:09:30.654Z,97389.81
2024-01-20T22:12:32.932Z,97388.09
2024-01-20T22:15:34.670Z,97380.38
2024-01-20T22:18:36.453Z,97388.09
2024-01-20T22:21:40.186Z,97388.16
2024-01-20T22:24:41.985Z,97383.00
2024-01-20T22:27:43.754Z,97395.03
2024-01-20T22:30:45.515Z,97400.22
2024-01-20T22:33:47.274Z,97408.06
2024-01-20T22:36:49.239Z,97404.69
2024-01-20T22:39:51.028Z,97396.97
2024-01-20T22:42:52.853Z,97391.84
2024-01-20T22:45:55.174Z,97395.34
2024-01-20T22:48:57.034Z,97391.09
2024-01-20T22:51:59.218Z,97387.75
2024-01-20T22:55:00.943Z,97389.53
2024-01-20T22:58:02.848Z,97385.25
2024-01-20T23:01:05.541Z,97387.84
2024-01-20T23:04:07.466Z,97402.41
2024-01-20T23:07:09.243Z,97400.75
2024-01-20T23:10:11.294Z,97397.31
2024-01-20T23:13:13.304Z,97389.63
2024-01-20T23:16:15.000Z,97385.41
2024-01-20T23:19:16.831Z,97372.72
2024-01-20T23:22:18.520Z,97379.66
2024-01-20T23:25:20.224Z,97377.06
2024-01-20T23:28:21.893Z,97365.97
2024-01-20T23:31:24.091Z,97361.72
2024-01-20T23:34:25.887Z,97357.50
2024-01-20T23:37:27.606Z,97354.91
2024-01-20T23:40:29.287Z,97344.72
2024-01-20T23:43:31.000Z,97344.69
2024-01-20T23:46:32.652Z,97346.41
2024-01-20T23:49:34.427Z,97355.78
2024-01-20T23:52:36.503Z,97353.28
2024-01-20T23:55:38.234Z,97347.34
2024-01-20T23:58:40.064Z,97343.06
